sensor_id;sensor_type;location;lat;lon;timestamp;P1;durP1;ratioP1;P2;durP2;ratioP2
63434;SDS011;68814;50.872;5.306;2023-04-06T00:01:53;35.35;;;16.85;;
63434;SDS011;68814;50.872;5.306;2023-04-06T00:04:18;34.72;;;16.88;;
63434;SDS011;68814;50.872;5.306;2023-04-06T00:06:44;34.33;;;17.25;;
63434;SDS011;68814;50.872;5.306;2023-04-06T00:09:09;33.92;;;16.25;;
63434;SDS011;68814;50.872;5.306;2023-04-06T00:11:35;30.10;;;16.33;;
63434;SDS011;68814;50.872;5.306;2023-04-06T00:14:01;30.88;;;16.17;;
63434;SDS011;68814;50.872;5.306;2023-04-06T00:16:26;32.67;;;17.00;;
63434;SDS011;68814;50.872;5.306;2023-04-06T00:18:52;33.95;;;16.73;;
63434;SDS011;68814;50.872;5.306;2023-04-06T00:21:17;33.90;;;16.85;;
63434;SDS011;68814;50.872;5.306;2023-04-06T00:23:43;29.58;;;15.75;;
63434;SDS011;68814;50.872;5.306;2023-04-06T00:26:09;33.72;;;17.20;;
63434;SDS011;68814;50.872;5.306;2023-04-06T00:35:31;32.10;;;16.73;;
63434;SDS011;68814;50.872;5.306;2023-04-06T00:37:57;28.17;;;15.20;;
63434;SDS011;68814;50.872;5.306;2023-04-06T00:40:22;31.83;;;16.48;;
63434;SDS011;68814;50.872;5.306;2023-04-06T00:42:48;31.05;;;17.10;;
63434;SDS011;68814;50.872;5.306;2023-04-06T00:45:14;30.58;;;16.23;;
63434;SDS011;68814;50.872;5.306;2023-04-06T00:47:40;29.45;;;14.73;;
63434;SDS011;68814;50.872;5.306;2023-04-06T00:50:06;31.50;;;16.33;;
63434;SDS011;68814;50.872;5.306;2023-04-06T01:09:21;35.42;;;17.60;;
63434;SDS011;68814;50.872;5.306;2023-04-06T01:11:47;32.58;;;16.90;;
63434;SDS011;68814;50.872;5.306;2023-04-06T01:14:13;33.33;;;16.17;;
63434;SDS011;68814;50.872;5.306;2023-04-06T01:16:40;33.65;;;15.90;;
63434;SDS011;68814;50.872;5.306;2023-04-06T01:19:07;32.88;;;16.50;;
63434;SDS011;68814;50.872;5.306;2023-04-06T01:21:34;29.33;;;15.80;;
63434;SDS011;68814;50.872;5.306;2023-04-06T01:27:21;33.35;;;16.65;;
63434;SDS011;68814;50.872;5.306;2023-04-06T01:29:47;32.80;;;16.27;;
63434;SDS011;68814;50.872;5.306;2023-04-06T01:32:12;38.90;;;17.83;;
63434;SDS011;68814;50.872;5.306;2023-04-06T01:34:38;31.95;;;17.00;;
63434;SDS011;68814;50.872;5.306;2023-04-06T01:37:04;36.45;;;16.88;;
63434;SDS011;68814;50.872;5.306;2023-04-06T01:39:30;34.30;;;16.98;;
63434;SDS011;68814;50.872;5.306;2023-04-06T01:42:01;32.50;;;16.58;;
63434;SDS011;68814;50.872;5.306;2023-04-06T01:44:27;32.75;;;16.25;;
63434;SDS011;68814;50.872;5.306;2023-04-06T01:46:55;37.47;;;17.05;;
63434;SDS011;68814;50.872;5.306;2023-04-06T01:49:21;39.33;;;16.88;;
63434;SDS011;68814;50.872;5.306;2023-04-06T01:51:47;34.83;;;16.58;;
63434;SDS011;68814;50.872;5.306;2023-04-06T01:57:34;36.13;;;15.68;;
63434;SDS011;68814;50.872;5.306;2023-04-06T02:00:00;39.25;;;17.88;;
63434;SDS011;68814;50.872;5.306;2023-04-06T02:02:25;41.47;;;17.98;;
63434;SDS011;68814;50.872;5.306;2023-04-06T02:04:51;38.72;;;17.90;;
63434;SDS011;68814;50.872;5.306;2023-04-06T02:07:22;32.42;;;16.80;;
63434;SDS011;68814;50.872;5.306;2023-04-06T02:09:48;37.88;;;17.90;;
63434;SDS011;68814;50.872;5.306;2023-04-06T02:12:14;44.22;;;18.00;;
63434;SDS011;68814;50.872;5.306;2023-04-06T02:14:40;34.90;;;18.52;;
63434;SDS011;68814;50.872;5.306;2023-04-06T02:17:05;36.47;;;18.17;;
63434;SDS011;68814;50.872;5.306;2023-04-06T02:26:35;39.92;;;17.20;;
63434;SDS011;68814;50.872;5.306;2023-04-06T02:29:00;33.22;;;17.38;;
63434;SDS011;68814;50.872;5.306;2023-04-06T02:31:27;34.63;;;17.73;;
63434;SDS011;68814;50.872;5.306;2023-04-06T02:33:52;35.80;;;17.98;;
63434;SDS011;68814;50.872;5.306;2023-04-06T02:36:18;37.50;;;16.85;;
63434;SDS011;68814;50.872;5.306;2023-04-06T02:38:44;40.83;;;18.85;;
63434;SDS011;68814;50.872;5.306;2023-04-06T02:41:10;37.63;;;18.35;;
63434;SDS011;68814;50.872;5.306;2023-04-06T02:43:35;32.45;;;16.25;;
63434;SDS011;68814;50.872;5.306;2023-04-06T02:46:01;36.08;;;17.23;;
63434;SDS011;68814;50.872;5.306;2023-04-06T02:48:27;35.67;;;17.13;;
63434;SDS011;68814;50.872;5.306;2023-04-06T02:50:52;42.00;;;17.90;;
63434;SDS011;68814;50.872;5.306;2023-04-06T03:17:45;38.92;;;17.25;;
63434;SDS011;68814;50.872;5.306;2023-04-06T03:20:11;37.45;;;17.52;;
63434;SDS011;68814;50.872;5.306;2023-04-06T03:22:37;30.98;;;15.95;;
63434;SDS011;68814;50.872;5.306;2023-04-06T03:25:02;35.05;;;17.00;;
63434;SDS011;68814;50.872;5.306;2023-04-06T03:41:02;33.33;;;17.50;;
63434;SDS011;68814;50.872;5.306;2023-04-06T03:43:27;38.25;;;18.73;;
63434;SDS011;68814;50.872;5.306;2023-04-06T03:45:53;34.15;;;17.67;;
63434;SDS011;68814;50.872;5.306;2023-04-06T03:48:18;33.88;;;17.83;;
63434;SDS011;68814;50.872;5.306;2023-04-06T03:50:44;40.88;;;19.80;;
63434;SDS011;68814;50.872;5.306;2023-04-06T03:53:10;32.75;;;16.40;;
63434;SDS011;68814;50.872;5.306;2023-04-06T03:55:36;36.00;;;17.98;;
63434;SDS011;68814;50.872;5.306;2023-04-06T03:58:01;32.58;;;16.83;;
63434;SDS011;68814;50.872;5.306;2023-04-06T04:00:27;36.08;;;18.80;;
63434;SDS011;68814;50.872;5.306;2023-04-06T04:02:53;34.10;;;17.45;;
63434;SDS011;68814;50.872;5.306;2023-04-06T04:05:18;37.30;;;17.45;;
63434;SDS011;68814;50.872;5.306;2023-04-06T04:14:27;34.90;;;18.02;;
63434;SDS011;68814;50.872;5.306;2023-04-06T04:16:53;33.67;;;17.25;;
63434;SDS011;68814;50.872;5.306;2023-04-06T04:19:18;39.70;;;19.02;;
63434;SDS011;68814;50.872;5.306;2023-04-06T04:21:45;34.50;;;16.80;;
63434;SDS011;68814;50.872;5.306;2023-04-06T04:24:11;37.30;;;18.70;;
63434;SDS011;68814;50.872;5.306;2023-04-06T04:26:38;36.83;;;18.08;;
63434;SDS011;68814;50.872;5.306;2023-04-06T04:29:03;34.60;;;18.42;;
63434;SDS011;68814;50.872;5.306;2023-04-06T04:48:27;43.38;;;22.48;;
63434;SDS011;68814;50.872;5.306;2023-04-06T04:50:53;56.20;;;26.65;;
63434;SDS011;68814;50.872;5.306;2023-04-06T04:53:20;60.83;;;31.75;;
63434;SDS011;68814;50.872;5.306;2023-04-06T04:55:45;64.45;;;34.05;;
63434;SDS011;68814;50.872;5.306;2023-04-06T04:58:11;63.90;;;33.40;;
63434;SDS011;68814;50.872;5.306;2023-04-06T05:00:41;58.28;;;30.15;;
63434;SDS011;68814;50.872;5.306;2023-04-06T05:16:49;51.20;;;24.92;;
63434;SDS011;68814;50.872;5.306;2023-04-06T05:19:14;50.83;;;25.85;;
63434;SDS011;68814;50.872;5.306;2023-04-06T05:21:40;52.25;;;26.80;;
63434;SDS011;68814;50.872;5.306;2023-04-06T05:24:06;53.42;;;25.35;;
63434;SDS011;68814;50.872;5.306;2023-04-06T05:26:32;51.55;;;28.15;;
63434;SDS011;68814;50.872;5.306;2023-04-06T05:28:58;54.90;;;29.73;;
63434;SDS011;68814;50.872;5.306;2023-04-06T05:31:23;54.95;;;26.98;;
63434;SDS011;68814;50.872;5.306;2023-04-06T05:33:49;54.72;;;28.88;;
63434;SDS011;68814;50.872;5.306;2023-04-06T05:46:20;55.10;;;27.13;;
63434;SDS011;68814;50.872;5.306;2023-04-06T05:48:46;42.53;;;21.50;;
63434;SDS011;68814;50.872;5.306;2023-04-06T05:51:12;37.38;;;19.80;;
63434;SDS011;68814;50.872;5.306;2023-04-06T05:53:37;47.95;;;21.92;;
63434;SDS011;68814;50.872;5.306;2023-04-06T06:19:35;33.92;;;15.18;;
63434;SDS011;68814;50.872;5.306;2023-04-06T06:22:01;39.70;;;16.65;;
63434;SDS011;68814;50.872;5.306;2023-04-06T06:24:27;38.28;;;15.85;;
63434;SDS011;68814;50.872;5.306;2023-04-06T06:26:53;33.22;;;17.75;;
63434;SDS011;68814;50.872;5.306;2023-04-06T06:29:19;33.20;;;16.45;;
63434;SDS011;68814;50.872;5.306;2023-04-06T06:31:44;29.88;;;14.90;;
63434;SDS011;68814;50.872;5.306;2023-04-06T06:34:10;27.85;;;15.43;;
63434;SDS011;68814;50.872;5.306;2023-04-06T06:40:11;27.83;;;13.73;;
63434;SDS011;68814;50.872;5.306;2023-04-06T06:42:38;35.28;;;15.68;;
63434;SDS011;68814;50.872;5.306;2023-04-06T06:45:05;25.30;;;13.95;;
63434;SDS011;68814;50.872;5.306;2023-04-06T06:47:32;26.15;;;13.68;;
63434;SDS011;68814;50.872;5.306;2023-04-06T06:49:57;26.17;;;13.35;;
63434;SDS011;68814;50.872;5.306;2023-04-06T06:52:23;26.70;;;14.68;;
63434;SDS011;68814;50.872;5.306;2023-04-06T06:54:49;28.73;;;14.90;;
63434;SDS011;68814;50.872;5.306;2023-04-06T06:57:15;32.75;;;14.13;;
63434;SDS011;68814;50.872;5.306;2023-04-06T06:59:40;23.83;;;13.50;;
63434;SDS011;68814;50.872;5.306;2023-04-06T07:02:06;23.65;;;13.30;;
63434;SDS011;68814;50.872;5.306;2023-04-06T07:04:32;30.50;;;14.10;;
63434;SDS011;68814;50.872;5.306;2023-04-06T07:06:57;25.92;;;13.05;;
63434;SDS011;68814;50.872;5.306;2023-04-06T07:09:23;27.33;;;13.52;;
63434;SDS011;68814;50.872;5.306;2023-04-06T07:11:51;26.23;;;13.73;;
63434;SDS011;68814;50.872;5.306;2023-04-06T07:14:16;32.13;;;13.88;;
63434;SDS011;68814;50.872;5.306;2023-04-06T07:34:28;23.35;;;12.77;;
63434;SDS011;68814;50.872;5.306;2023-04-06T07:36:54;23.45;;;13.30;;
63434;SDS011;68814;50.872;5.306;2023-04-06T07:39:21;21.98;;;13.10;;
63434;SDS011;68814;50.872;5.306;2023-04-06T07:41:47;22.42;;;12.85;;
63434;SDS011;68814;50.872;5.306;2023-04-06T07:44:13;24.13;;;12.57;;
63434;SDS011;68814;50.872;5.306;2023-04-06T07:46:38;21.17;;;12.55;;
63434;SDS011;68814;50.872;5.306;2023-04-06T07:49:04;22.45;;;12.77;;
63434;SDS011;68814;50.872;5.306;2023-04-06T07:51:30;20.50;;;11.95;;
63434;SDS011;68814;50.872;5.306;2023-04-06T07:53:56;25.80;;;13.13;;
63434;SDS011;68814;50.872;5.306;2023-04-06T07:56:21;26.10;;;13.18;;
63434;SDS011;68814;50.872;5.306;2023-04-06T08:05:36;23.38;;;12.48;;
63434;SDS011;68814;50.872;5.306;2023-04-06T08:08:01;27.92;;;12.57;;
63434;SDS011;68814;50.872;5.306;2023-04-06T08:10:27;30.35;;;12.73;;
63434;SDS011;68814;50.872;5.306;2023-04-06T08:12:53;23.17;;;11.63;;
63434;SDS011;68814;50.872;5.306;2023-04-06T08:15:19;21.75;;;11.68;;
63434;SDS011;68814;50.872;5.306;2023-04-06T08:17:54;19.38;;;11.23;;
63434;SDS011;68814;50.872;5.306;2023-04-06T08:20:22;25.10;;;12.15;;
63434;SDS011;68814;50.872;5.306;2023-04-06T08:22:47;22.15;;;11.15;;
63434;SDS011;68814;50.872;5.306;2023-04-06T08:25:13;24.38;;;12.43;;
63434;SDS011;68814;50.872;5.306;2023-04-06T08:27:39;24.50;;;11.85;;
63434;SDS011;68814;50.872;5.306;2023-04-06T08:49:08;21.73;;;11.18;;
63434;SDS011;68814;50.872;5.306;2023-04-06T08:51:34;25.88;;;11.82;;
63434;SDS011;68814;50.872;5.306;2023-04-06T08:54:02;23.98;;;11.38;;
63434;SDS011;68814;50.872;5.306;2023-04-06T08:56:28;22.45;;;11.23;;
63434;SDS011;68814;50.872;5.306;2023-04-06T08:59:06;19.83;;;10.45;;
63434;SDS011;68814;50.872;5.306;2023-04-06T09:01:33;22.50;;;10.82;;
63434;SDS011;68814;50.872;5.306;2023-04-06T09:04:01;22.50;;;11.52;;
63434;SDS011;68814;50.872;5.306;2023-04-06T09:06:30;20.38;;;10.93;;
63434;SDS011;68814;50.872;5.306;2023-04-06T09:08:56;17.45;;;10.48;;
63434;SDS011;68814;50.872;5.306;2023-04-06T09:11:23;20.30;;;10.18;;
63434;SDS011;68814;50.872;5.306;2023-04-06T09:13:50;19.25;;;9.88;;
63434;SDS011;68814;50.872;5.306;2023-04-06T09:16:17;17.65;;;10.20;;
63434;SDS011;68814;50.872;5.306;2023-04-06T09:18:43;17.02;;;9.50;;
63434;SDS011;68814;50.872;5.306;2023-04-06T09:21:10;21.25;;;9.50;;
63434;SDS011;68814;50.872;5.306;2023-04-06T09:23:36;17.95;;;9.27;;
63434;SDS011;68814;50.872;5.306;2023-04-06T09:26:04;13.43;;;8.05;;
63434;SDS011;68814;50.872;5.306;2023-04-06T09:28:47;21.77;;;9.60;;
63434;SDS011;68814;50.872;5.306;2023-04-06T09:31:25;17.77;;;10.23;;
63434;SDS011;68814;50.872;5.306;2023-04-06T09:36:18;18.38;;;9.95;;
63434;SDS011;68814;50.872;5.306;2023-04-06T09:38:57;19.83;;;9.95;;
63434;SDS011;68814;50.872;5.306;2023-04-06T09:41:34;23.63;;;8.88;;
63434;SDS011;68814;50.872;5.306;2023-04-06T09:44:07;14.55;;;9.07;;
63434;SDS011;68814;50.872;5.306;2023-04-06T09:46:35;18.50;;;9.18;;
63434;SDS011;68814;50.872;5.306;2023-04-06T09:49:03;18.38;;;9.43;;
63434;SDS011;68814;50.872;5.306;2023-04-06T09:54:36;14.98;;;8.68;;
63434;SDS011;68814;50.872;5.306;2023-04-06T09:59:52;18.98;;;10.15;;
63434;SDS011;68814;50.872;5.306;2023-04-06T10:05:15;19.63;;;10.93;;
63434;SDS011;68814;50.872;5.306;2023-04-06T10:07:42;18.67;;;10.20;;
63434;SDS011;68814;50.872;5.306;2023-04-06T10:10:09;18.58;;;10.02;;
63434;SDS011;68814;50.872;5.306;2023-04-06T10:12:37;18.15;;;9.60;;
63434;SDS011;68814;50.872;5.306;2023-04-06T10:15:04;17.33;;;9.52;;
63434;SDS011;68814;50.872;5.306;2023-04-06T10:17:30;14.85;;;9.15;;
63434;SDS011;68814;50.872;5.306;2023-04-06T10:20:09;14.77;;;8.70;;
63434;SDS011;68814;50.872;5.306;2023-04-06T10:23:01;15.45;;;8.70;;
63434;SDS011;68814;50.872;5.306;2023-04-06T10:25:40;16.17;;;9.65;;
63434;SDS011;68814;50.872;5.306;2023-04-06T10:28:33;18.48;;;9.32;;
63434;SDS011;68814;50.872;5.306;2023-04-06T10:31:09;16.88;;;9.10;;
63434;SDS011;68814;50.872;5.306;2023-04-06T10:33:35;15.48;;;9.02;;
63434;SDS011;68814;50.872;5.306;2023-04-06T10:36:14;15.73;;;9.20;;
63434;SDS011;68814;50.872;5.306;2023-04-06T10:38:41;17.65;;;9.15;;
63434;SDS011;68814;50.872;5.306;2023-04-06T10:41:10;17.73;;;9.68;;
63434;SDS011;68814;50.872;5.306;2023-04-06T10:43:37;17.90;;;8.52;;
63434;SDS011;68814;50.872;5.306;2023-04-06T10:46:05;15.20;;;7.97;;
63434;SDS011;68814;50.872;5.306;2023-04-06T10:48:39;12.98;;;7.93;;
63434;SDS011;68814;50.872;5.306;2023-04-06T10:51:12;12.07;;;7.53;;
63434;SDS011;68814;50.872;5.306;2023-04-06T10:53:42;13.13;;;7.10;;
63434;SDS011;68814;50.872;5.306;2023-04-06T10:56:11;12.80;;;6.68;;
63434;SDS011;68814;50.872;5.306;2023-04-06T10:58:38;14.10;;;8.10;;
63434;SDS011;68814;50.872;5.306;2023-04-06T11:01:10;13.65;;;7.30;;
63434;SDS011;68814;50.872;5.306;2023-04-06T11:03:43;12.95;;;7.63;;
63434;SDS011;68814;50.872;5.306;2023-04-06T11:06:10;13.07;;;7.80;;
63434;SDS011;68814;50.872;5.306;2023-04-06T11:08:35;14.57;;;7.68;;
63434;SDS011;68814;50.872;5.306;2023-04-06T11:16:20;9.50;;;6.45;;
63434;SDS011;68814;50.872;5.306;2023-04-06T11:18:57;15.00;;;7.22;;
63434;SDS011;68814;50.872;5.306;2023-04-06T11:21:35;13.65;;;7.88;;
63434;SDS011;68814;50.872;5.306;2023-04-06T11:24:07;13.25;;;7.05;;
63434;SDS011;68814;50.872;5.306;2023-04-06T11:26:40;16.13;;;9.07;;
63434;SDS011;68814;50.872;5.306;2023-04-06T11:29:08;12.98;;;7.05;;
63434;SDS011;68814;50.872;5.306;2023-04-06T11:31:39;14.40;;;8.13;;
63434;SDS011;68814;50.872;5.306;2023-04-06T11:34:09;12.93;;;7.40;;
63434;SDS011;68814;50.872;5.306;2023-04-06T11:36:44;15.80;;;8.60;;
63434;SDS011;68814;50.872;5.306;2023-04-06T11:39:11;13.35;;;8.13;;
63434;SDS011;68814;50.872;5.306;2023-04-06T11:41:38;16.17;;;7.90;;
63434;SDS011;68814;50.872;5.306;2023-04-06T11:44:05;13.98;;;8.27;;
63434;SDS011;68814;50.872;5.306;2023-04-06T11:46:31;17.00;;;8.18;;
63434;SDS011;68814;50.872;5.306;2023-04-06T11:48:58;12.05;;;6.25;;
63434;SDS011;68814;50.872;5.306;2023-04-06T11:51:25;10.90;;;6.88;;
63434;SDS011;68814;50.872;5.306;2023-04-06T11:53:52;10.93;;;6.93;;
63434;SDS011;68814;50.872;5.306;2023-04-06T11:58:54;11.00;;;6.20;;
63434;SDS011;68814;50.872;5.306;2023-04-06T12:01:21;11.75;;;6.72;;
63434;SDS011;68814;50.872;5.306;2023-04-06T12:03:55;9.88;;;6.55;;
63434;SDS011;68814;50.872;5.306;2023-04-06T12:06:23;10.30;;;6.53;;
63434;SDS011;68814;50.872;5.306;2023-04-06T12:08:50;12.50;;;6.78;;
63434;SDS011;68814;50.872;5.306;2023-04-06T12:11:16;10.93;;;7.03;;
63434;SDS011;68814;50.872;5.306;2023-04-06T12:13:43;13.43;;;6.30;;
63434;SDS011;68814;50.872;5.306;2023-04-06T12:16:09;13.60;;;8.38;;
63434;SDS011;68814;50.872;5.306;2023-04-06T12:18:35;15.38;;;7.32;;
63434;SDS011;68814;50.872;5.306;2023-04-06T12:21:01;10.18;;;6.13;;
63434;SDS011;68814;50.872;5.306;2023-04-06T12:23:30;19.42;;;8.88;;
63434;SDS011;68814;50.872;5.306;2023-04-06T12:26:03;14.20;;;7.20;;
63434;SDS011;68814;50.872;5.306;2023-04-06T12:28:29;13.57;;;7.53;;
63434;SDS011;68814;50.872;5.306;2023-04-06T12:30:55;15.18;;;7.15;;
63434;SDS011;68814;50.872;5.306;2023-04-06T12:33:20;10.77;;;7.47;;
63434;SDS011;68814;50.872;5.306;2023-04-06T12:35:46;12.27;;;7.18;;
63434;SDS011;68814;50.872;5.306;2023-04-06T12:38:12;12.98;;;7.63;;
63434;SDS011;68814;50.872;5.306;2023-04-06T12:40:37;13.55;;;8.20;;
63434;SDS011;68814;50.872;5.306;2023-04-06T12:43:04;15.55;;;9.02;;
63434;SDS011;68814;50.872;5.306;2023-04-06T12:45:32;12.52;;;7.70;;
63434;SDS011;68814;50.872;5.306;2023-04-06T12:53:08;13.50;;;8.35;;
63434;SDS011;68814;50.872;5.306;2023-04-06T12:55:34;13.73;;;8.45;;
63434;SDS011;68814;50.872;5.306;2023-04-06T12:58:00;13.52;;;8.60;;
63434;SDS011;68814;50.872;5.306;2023-04-06T13:00:26;15.73;;;8.63;;
63434;SDS011;68814;50.872;5.306;2023-04-06T13:02:52;13.30;;;8.63;;
63434;SDS011;68814;50.872;5.306;2023-04-06T13:05:18;12.73;;;8.27;;
63434;SDS011;68814;50.872;5.306;2023-04-06T13:07:44;16.63;;;8.57;;
63434;SDS011;68814;50.872;5.306;2023-04-06T13:10:11;13.27;;;7.90;;
63434;SDS011;68814;50.872;5.306;2023-04-06T13:12:36;12.57;;;8.52;;
63434;SDS011;68814;50.872;5.306;2023-04-06T13:15:02;11.95;;;7.50;;
63434;SDS011;68814;50.872;5.306;2023-04-06T13:17:31;13.10;;;7.72;;
63434;SDS011;68814;50.872;5.306;2023-04-06T13:20:02;12.65;;;8.35;;
63434;SDS011;68814;50.872;5.306;2023-04-06T13:22:33;13.77;;;8.60;;
63434;SDS011;68814;50.872;5.306;2023-04-06T13:25:00;15.48;;;9.55;;
63434;SDS011;68814;50.872;5.306;2023-04-06T15:45:13;21.35;;;10.90;;
63434;SDS011;68814;50.872;5.306;2023-04-06T15:47:59;23.33;;;10.32;;
63434;SDS011;68814;50.872;5.306;2023-04-06T15:50:25;17.95;;;10.73;;
63434;SDS011;68814;50.872;5.306;2023-04-06T15:52:52;17.85;;;11.73;;
63434;SDS011;68814;50.872;5.306;2023-04-06T15:55:18;18.20;;;11.30;;
63434;SDS011;68814;50.872;5.306;2023-04-06T17:41:18;13.52;;;8.43;;
63434;SDS011;68814;50.872;5.306;2023-04-06T18:36:11;12.43;;;7.47;;
63434;SDS011;68814;50.872;5.306;2023-04-06T18:41:24;11.52;;;7.78;;
63434;SDS011;68814;50.872;5.306;2023-04-06T18:43:50;12.32;;;7.75;;
63434;SDS011;68814;50.872;5.306;2023-04-06T18:59:13;13.00;;;7.85;;
63434;SDS011;68814;50.872;5.306;2023-04-06T19:06:52;14.48;;;7.95;;
63434;SDS011;68814;50.872;5.306;2023-04-06T19:09:19;19.92;;;8.20;;
63434;SDS011;68814;50.872;5.306;2023-04-06T19:11:45;14.20;;;8.38;;
63434;SDS011;68814;50.872;5.306;2023-04-06T19:14:14;17.45;;;8.85;;
63434;SDS011;68814;50.872;5.306;2023-04-06T19:16:41;17.85;;;8.20;;
63434;SDS011;68814;50.872;5.306;2023-04-06T19:19:28;15.20;;;9.05;;
63434;SDS011;68814;50.872;5.306;2023-04-06T19:21:55;17.85;;;9.13;;
63434;SDS011;68814;50.872;5.306;2023-04-06T19:24:22;13.18;;;8.65;;
63434;SDS011;68814;50.872;5.306;2023-04-06T19:26:51;20.15;;;10.13;;
63434;SDS011;68814;50.872;5.306;2023-04-06T19:29:17;13.45;;;8.75;;
63434;SDS011;68814;50.872;5.306;2023-04-06T19:31:53;17.65;;;9.93;;
63434;SDS011;68814;50.872;5.306;2023-04-06T19:34:20;15.68;;;8.98;;
63434;SDS011;68814;50.872;5.306;2023-04-06T19:36:47;16.33;;;9.30;;
63434;SDS011;68814;50.872;5.306;2023-04-06T19:39:18;13.48;;;8.57;;
63434;SDS011;68814;50.872;5.306;2023-04-06T19:41:47;16.58;;;9.80;;
63434;SDS011;68814;50.872;5.306;2023-04-06T19:44:34;19.15;;;10.38;;
63434;SDS011;68814;50.872;5.306;2023-04-06T19:47:02;20.15;;;9.88;;
63434;SDS011;68814;50.872;5.306;2023-04-06T19:49:48;22.13;;;10.43;;
63434;SDS011;68814;50.872;5.306;2023-04-06T19:52:14;19.70;;;10.50;;
63434;SDS011;68814;50.872;5.306;2023-04-06T19:54:41;15.43;;;9.30;;
63434;SDS011;68814;50.872;5.306;2023-04-06T19:57:11;23.50;;;10.80;;
63434;SDS011;68814;50.872;5.306;2023-04-06T19:59:57;18.48;;;10.63;;
63434;SDS011;68814;50.872;5.306;2023-04-06T20:02:43;18.70;;;10.15;;
63434;SDS011;68814;50.872;5.306;2023-04-06T20:05:30;20.15;;;10.70;;
63434;SDS011;68814;50.872;5.306;2023-04-06T20:07:56;22.65;;;11.50;;
63434;SDS011;68814;50.872;5.306;2023-04-06T20:10:43;20.48;;;11.35;;
63434;SDS011;68814;50.872;5.306;2023-04-06T20:13:29;21.52;;;11.65;;
63434;SDS011;68814;50.872;5.306;2023-04-06T20:15:57;22.70;;;12.15;;
63434;SDS011;68814;50.872;5.306;2023-04-06T20:18:24;21.92;;;11.93;;
63434;SDS011;68814;50.872;5.306;2023-04-06T20:20:50;27.05;;;13.93;;
63434;SDS011;68814;50.872;5.306;2023-04-06T20:23:28;25.63;;;14.50;;
63434;SDS011;68814;50.872;5.306;2023-04-06T20:26:29;26.35;;;14.10;;
63434;SDS011;68814;50.872;5.306;2023-04-06T20:29:10;27.23;;;14.57;;
63434;SDS011;68814;50.872;5.306;2023-04-06T20:31:40;31.52;;;15.82;;
63434;SDS011;68814;50.872;5.306;2023-04-06T22:24:22;37.38;;;19.95;;
63434;SDS011;68814;50.872;5.306;2023-04-06T22:26:47;32.30;;;17.65;;
63434;SDS011;68814;50.872;5.306;2023-04-06T22:29:13;41.00;;;18.50;;
63434;SDS011;68814;50.872;5.306;2023-04-06T22:31:40;30.70;;;17.15;;
63434;SDS011;68814;50.872;5.306;2023-04-06T22:34:06;31.88;;;17.73;;
63434;SDS011;68814;50.872;5.306;2023-04-06T22:36:34;32.60;;;17.38;;
63434;SDS011;68814;50.872;5.306;2023-04-06T22:39:19;30.88;;;17.30;;
63434;SDS011;68814;50.872;5.306;2023-04-06T22:42:26;34.47;;;17.98;;
63434;SDS011;68814;50.872;5.306;2023-04-06T22:44:54;31.70;;;18.20;;
63434;SDS011;68814;50.872;5.306;2023-04-06T22:47:26;34.72;;;17.30;;
63434;SDS011;68814;50.872;5.306;2023-04-06T22:50:27;27.58;;;16.40;;
63434;SDS011;68814;50.872;5.306;2023-04-06T22:53:35;31.20;;;16.80;;
63434;SDS011;68814;50.872;5.306;2023-04-06T22:56:02;35.78;;;17.65;;
63434;SDS011;68814;50.872;5.306;2023-04-06T22:58:37;35.40;;;17.23;;
63434;SDS011;68814;50.872;5.306;2023-04-06T23:01:26;38.78;;;18.77;;
63434;SDS011;68814;50.872;5.306;2023-04-06T23:04:14;42.67;;;21.15;;
63434;SDS011;68814;50.872;5.306;2023-04-06T23:07:00;41.00;;;21.02;;
63434;SDS011;68814;50.872;5.306;2023-04-06T23:09:46;45.03;;;21.27;;
63434;SDS011;68814;50.872;5.306;2023-04-06T23:12:13;48.22;;;22.30;;
63434;SDS011;68814;50.872;5.306;2023-04-06T23:14:39;46.63;;;21.33;;
63434;SDS011;68814;50.872;5.306;2023-04-06T23:17:07;47.53;;;20.08;;
63434;SDS011;68814;50.872;5.306;2023-04-06T23:19:55;45.15;;;21.65;;
63434;SDS011;68814;50.872;5.306;2023-04-06T23:22:25;43.45;;;21.83;;
63434;SDS011;68814;50.872;5.306;2023-04-06T23:24:52;45.88;;;20.70;;
63434;SDS011;68814;50.872;5.306;2023-04-06T23:27:18;49.70;;;19.55;;
63434;SDS011;68814;50.872;5.306;2023-04-06T23:29:45;40.88;;;19.27;;
63434;SDS011;68814;50.872;5.306;2023-04-06T23:32:12;43.70;;;18.17;;
63434;SDS011;68814;50.872;5.306;2023-04-06T23:34:38;38.85;;;17.30;;
63434;SDS011;68814;50.872;5.306;2023-04-06T23:37:05;33.47;;;16.27;;
63434;SDS011;68814;50.872;5.306;2023-04-06T23:39:31;37.17;;;17.48;;
63434;SDS011;68814;50.872;5.306;2023-04-06T23:41:59;34.83;;;17.10;;
63434;SDS011;68814;50.872;5.306;2023-04-06T23:44:28;37.95;;;17.23;;
63434;SDS011;68814;50.872;5.306;2023-04-06T23:47:18;32.92;;;16.88;;
63434;SDS011;68814;50.872;5.306;2023-04-06T23:49:45;30.23;;;16.55;;
63434;SDS011;68814;50.872;5.306;2023-04-06T23:52:11;38.33;;;16.02;;
63434;SDS011;68814;50.872;5.306;2023-04-06T23:54:37;32.78;;;15.50;;
63434;SDS011;68814;50.872;5.306;2023-04-06T23:57:03;36.10;;;16.45;;
63434;SDS011;68814;50.872;5.306;2023-04-06T23:59:29;34.55;;;17.10;;
